Friday, December 14, 2018, 12:34 PM EST
Back to Local

KDXR, Danbury Municipal Airport

Location: Danbury, CT, United States Lat: 41.367
Local Time: 12:34 PM EST (17:34 GMT) Lon: -73.483
Time Zone: US/Eastern Elev: 459 ft

Show me the last for .
Show Decoded

2018-12-14 11:53 METAR KDXR 141653Z 07004KT 9SM OVC028 04/01 A3042 RMK AO2 PRESFR SLP305
                 T00440006 =
2018-12-14 11:51 METAR KDXR 141651Z 07004KT 9SM OVC028 04/01 A3042 RMK AO2 =
2018-12-14 11:01 METAR KDXR 141601Z 02003KT 9SM FEW023 BKN031 OVC050 03/M01 A3047 RMK AO2
                 T00331006 =
2018-12-14 10:53 METAR KDXR 141553Z 00000KT 9SM BKN023 BKN031 OVC050 03/00 A3048 RMK AO2 SLP324
                 T00330000 =
2018-12-14 09:53 METAR KDXR 141453Z 06004KT 9SM OVC022 03/M01 A3051 RMK AO2 SLP334 T00281006
                 50005 =
2018-12-14 09:17 METAR KDXR 141417Z 00000KT 9SM BKN019 BKN060 02/M01 A3051 RMK AO2 T00221011 =
2018-12-14 08:53 METAR KDXR 141353Z 00000KT 9SM BKN031 02/M02 A3052 RMK AO2 SLP338 T00221017 =
2018-12-14 07:53 METAR KDXR 141253Z 04004KT 9SM OVC031 00/M03 A3050 RMK AO2 SLP331 T00001028 =
2018-12-14 06:53 METAR KDXR 141153Z 00000KT 10SM OVC032 00/M03 A3049 RMK AO2 SLP329 T00001028
                 10000 21006 55001 =
2018-12-14 05:53 METAR KDXR 141053Z AUTO 03003KT 10SM FEW016 OVC033 00/M03 A3048 RMK AO2 SLP326
                 T00001028 =
2018-12-14 05:20 METAR KDXR 141020Z AUTO 05004KT 10SM SCT016 OVC034 00/M03 A3049 RMK AO2
                 T00001028 =
2018-12-14 04:53 METAR KDXR 140953Z AUTO 09004KT 10SM BKN016 OVC036 00/M03 A3048 RMK AO2 SLP327
                 T00001028 =
2018-12-14 03:53 METAR KDXR 140853Z AUTO 00000KT 10SM OVC039 00/M03 A3049 RMK AO2 SLP330
                 T00001028 55005 =
2018-12-14 02:53 METAR KDXR 140753Z AUTO 06005KT 9SM OVC039 00/M03 A3048 RMK AO2 SLP327 T00001028
                 =
2018-12-14 02:28 METAR KDXR 140728Z AUTO 05005KT 9SM FEW021 OVC038 00/M03 A3050 RMK AO2 T00001028
                 =
2018-12-14 02:04 METAR KDXR 140704Z AUTO 04003KT 9SM SCT012 BKN020 OVC041 M01/M03 A3050 RMK AO2
                 T10061033 =
2018-12-14 01:53 METAR KDXR 140653Z AUTO 07003KT 9SM BKN012 BKN019 OVC041 00/M03 A3050 RMK AO2
                 SLP332 T00001033 =
2018-12-14 00:53 METAR KDXR 140553Z AUTO 08005KT 9SM OVC012 M01/M03 A3051 RMK AO2 SLP336
                 T10061033 11006 21011 58001 =
2018-12-13 23:53 METAR KDXR 140453Z AUTO 00000KT 10SM OVC012 M01/M03 A3052 RMK AO2 SLP340
                 T10061033 410061044 =
2018-12-13 22:53 METAR KDXR 140353Z AUTO 04003KT 9SM OVC012 M01/M03 A3052 RMK AO2 SLP338
                 T10061033 =
2018-12-13 21:53 METAR KDXR 140253Z 07004KT 9SM OVC011 M01/M04 A3051 RMK AO2 SLP337 T10111039
                 51005 =
2018-12-13 20:53 METAR KDXR 140153Z 07007KT 9SM OVC010 M01/M04 A3051 RMK AO2 SLP335 T10111039 =
2018-12-13 20:14 METAR KDXR 140114Z 08004KT 9SM OVC010 M01/M04 A3050 RMK AO2 T10111039 =
2018-12-13 19:53 METAR KDXR 140053Z 10004KT 9SM OVC009 M01/M03 A3050 RMK AO2 SLP335 T10111033 =
2018-12-13 18:53 METAR KDXR 132353Z 07004KT 10SM OVC009 M01/M03 A3050 RMK AO2 SLP332 60000
                 T10111033 11011 21017 53007 =
2018-12-13 18:26 METAR KDXR 132326Z 05005KT 9SM OVC009 M01/M03 A3049 RMK AO2 T10111033 =
2018-12-13 17:53 METAR KDXR 132253Z 07006KT 8SM OVC010 M01/M03 A3049 RMK AO2 SNE19 SLP329 P0000
                 T10111033 =
2018-12-13 16:53 METAR KDXR 132153Z 07005KT 4SM -SN BR OVC011 M02/M03 A3048 RMK AO2 SLP327 P0000
                 T10171033 =
2018-12-13 15:53 METAR KDXR 132053Z 07006KT 3SM -SN OVC013 M01/M04 A3047 RMK AO2 SNB11 SLP325
                 P0000 60000 T10111044 53016 =
2018-12-13 14:53 METAR KDXR 131953Z 05007KT 8SM OVC013 M01/M05 A3045 RMK AO2 SLP318 T10111050 =
2018-12-13 14:40 METAR KDXR 131940Z 06004KT 8SM OVC014 M01/M04 A3045 RMK AO2 T10111044 =
2018-12-13 13:53 METAR KDXR 131853Z 05006KT 9SM OVC016 M01/M05 A3044 RMK AO2 SNE05 SLP313 P0000
                 T10111050 =
2018-12-13 12:53 METAR KDXR 131753Z 07006KT 4SM -SN BKN019 OVC024 M01/M05 A3043 RMK AO2 SNB19
                 SLP309 P0000 60000 T10111050 11011 21044 58007 =
2018-12-13 12:38 METAR KDXR 131738Z 07008KT 4SM -SN FEW019 OVC024 M01/M05 A3043 RMK AO2 SNB19
                 P0000 T10111050 =

Support USWX by starting your Amazon purchase here.